createdAt,value
2018-03-29T00:01:04.349Z,3.40
2018-03-29T00:03:32.774Z,3.53
2018-03-29T00:06:01.228Z,3.80
2018-03-29T00:08:30.423Z,3.90
2018-03-29T00:10:59.633Z,3.90
2018-03-29T00:13:28.054Z,4.03
2018-03-29T00:15:56.469Z,3.90
2018-03-29T00:18:25.678Z,3.87
2018-03-29T00:20:55.011Z,3.77
2018-03-29T00:23:23.585Z,3.70
2018-03-29T00:25:52.012Z,3.67
2018-03-29T00:28:20.442Z,3.80
2018-03-29T00:30:48.882Z,3.60
2018-03-29T00:33:18.067Z,3.87
2018-03-29T00:35:46.495Z,3.70
2018-03-29T00:38:14.910Z,4.10
2018-03-29T00:40:43.343Z,3.87
2018-03-29T00:43:11.770Z,4.57
2018-03-29T00:45:40.193Z,4.40
2018-03-29T00:48:08.644Z,4.27
2018-03-29T00:50:37.837Z,4.50
2018-03-29T00:53:18.485Z,4.13
2018-03-29T00:55:46.901Z,4.40
2018-03-29T00:58:15.366Z,5.03
2018-03-29T01:00:44.543Z,4.30
2018-03-29T01:03:12.964Z,4.90
2018-03-29T01:05:41.395Z,4.40
2018-03-29T01:08:09.822Z,4.33
2018-03-29T01:10:38.012Z,4.37
2018-03-29T01:13:07.517Z,4.53
2018-03-29T01:15:36.135Z,4.47
2018-03-29T01:18:04.559Z,4.87
2018-03-29T01:20:32.998Z,4.60
2018-03-29T01:23:02.363Z,4.03
2018-03-29T01:25:30.810Z,4.73
2018-03-29T01:27:59.213Z,4.33
2018-03-29T01:30:27.642Z,4.27
2018-03-29T01:32:56.826Z,4.50
2018-03-29T01:35:26.132Z,4.80
2018-03-29T01:37:54.547Z,4.17
2018-03-29T01:40:22.963Z,4.57
2018-03-29T01:42:51.402Z,4.27
2018-03-29T01:45:19.831Z,4.40
2018-03-29T01:47:48.357Z,4.47
2018-03-29T01:50:16.775Z,4.40
2018-03-29T01:52:45.204Z,4.60
2018-03-29T01:55:14.394Z,4.43
2018-03-29T01:57:43.588Z,4.73
2018-03-29T02:00:12.781Z,4.33
2018-03-29T02:02:41.955Z,4.77
2018-03-29T02:05:10.377Z,4.80
2018-03-29T02:07:38.467Z,4.20
2018-03-29T02:10:06.919Z,4.60
2018-03-29T02:12:36.121Z,4.50
2018-03-29T02:15:04.218Z,4.80
2018-03-29T02:17:32.639Z,4.33
2018-03-29T02:20:01.074Z,4.20
2018-03-29T02:22:29.503Z,4.60
2018-03-29T02:24:58.686Z,4.47
2018-03-29T02:27:27.117Z,4.87
2018-03-29T02:29:55.730Z,4.80
2018-03-29T02:32:23.935Z,4.30
2018-03-29T02:34:53.128Z,4.70
2018-03-29T02:37:22.317Z,4.47
2018-03-29T02:39:50.759Z,4.77
2018-03-29T02:42:19.175Z,5.00
2018-03-29T02:44:47.587Z,4.73
2018-03-29T02:47:16.017Z,4.37
2018-03-29T02:49:44.437Z,4.60
2018-03-29T02:52:12.877Z,4.53
2018-03-29T02:54:41.299Z,4.50
2018-03-29T02:57:09.736Z,4.43
2018-03-29T02:59:38.151Z,4.17
2018-03-29T03:02:06.600Z,4.00
2018-03-29T03:04:35.029Z,4.27
2018-03-29T03:07:03.447Z,4.03
2018-03-29T03:09:31.900Z,4.40
2018-03-29T03:12:02.327Z,4.20
2018-03-29T03:14:30.768Z,4.20
2018-03-29T03:16:59.189Z,4.30
2018-03-29T03:19:27.645Z,4.77
2018-03-29T03:21:56.941Z,4.20
2018-03-29T03:24:26.224Z,4.93
2018-03-29T03:26:54.992Z,4.80
2018-03-29T03:29:24.915Z,4.23
2018-03-29T03:31:54.775Z,4.57
2018-03-29T03:34:23.207Z,4.90
2018-03-29T03:36:53.664Z,4.67
2018-03-29T03:39:22.094Z,4.40
2018-03-29T03:41:51.283Z,4.70
2018-03-29T03:44:19.727Z,5.07
2018-03-29T03:46:48.922Z,4.70
2018-03-29T03:49:17.346Z,4.17
2018-03-29T03:51:46.571Z,5.00
2018-03-29T03:54:14.995Z,5.77
2018-03-29T03:56:43.422Z,4.80
2018-03-29T03:59:11.855Z,4.80
2018-03-29T04:01:40.275Z,4.80
2018-03-29T04:04:08.717Z,5.03
2018-03-29T04:06:37.146Z,4.53
2018-03-29T04:09:04.943Z,5.40
2018-03-29T04:11:33.543Z,5.17
2018-03-29T04:14:01.963Z,4.63
2018-03-29T04:16:30.395Z,4.80
2018-03-29T04:18:58.811Z,4.40
2018-03-29T04:21:28.002Z,5.20
2018-03-29T04:23:57.196Z,5.70
2018-03-29T04:26:26.782Z,5.70
2018-03-29T04:28:55.199Z,6.77
2018-03-29T04:31:23.689Z,6.50
2018-03-29T04:33:52.119Z,5.80
2018-03-29T04:36:20.545Z,5.30
2018-03-29T04:38:48.974Z,5.57
2018-03-29T04:41:17.378Z,4.93
2018-03-29T04:43:46.575Z,5.40
2018-03-29T04:46:15.106Z,5.43
2018-03-29T04:48:43.193Z,6.30
2018-03-29T04:51:11.642Z,5.43
2018-03-29T04:53:39.741Z,5.67
2018-03-29T04:56:08.164Z,5.17
2018-03-29T04:58:36.603Z,6.23
2018-03-29T05:01:04.702Z,6.67
2018-03-29T05:03:33.112Z,6.17
2018-03-29T05:06:01.542Z,6.27
2018-03-29T05:08:30.762Z,6.00
2018-03-29T05:10:58.579Z,6.23
2018-03-29T05:13:27.892Z,6.30
2018-03-29T05:15:56.674Z,6.17
2018-03-29T05:18:25.336Z,7.20
2018-03-29T05:20:54.504Z,6.10
2018-03-29T05:23:22.928Z,7.33
2018-03-29T05:25:51.120Z,6.73
2018-03-29T05:28:20.325Z,7.33
2018-03-29T05:30:49.526Z,6.77
2018-03-29T05:33:18.721Z,6.60
2018-03-29T05:35:47.928Z,7.67
2018-03-29T05:38:16.356Z,7.90
2018-03-29T05:40:44.806Z,7.60
2018-03-29T05:43:13.221Z,8.37
2018-03-29T05:45:41.642Z,6.83
2018-03-29T05:48:10.069Z,5.90
2018-03-29T05:50:38.513Z,5.77
2018-03-29T05:53:06.943Z,5.40
2018-03-29T05:55:36.139Z,6.30
2018-03-29T05:58:04.582Z,5.97
2018-03-29T06:00:33.001Z,5.77
2018-03-29T06:03:01.428Z,5.40
2018-03-29T06:05:30.051Z,5.03
2018-03-29T06:07:58.472Z,5.43
2018-03-29T06:10:26.908Z,5.40
2018-03-29T06:12:55.317Z,5.20
2018-03-29T06:15:25.545Z,5.50
2018-03-29T06:18:00.568Z,5.57
2018-03-29T06:20:29.433Z,5.23
2018-03-29T06:22:57.843Z,5.53
2018-03-29T06:25:26.993Z,5.63
2018-03-29T06:27:56.142Z,5.97
2018-03-29T06:30:25.158Z,5.73
2018-03-29T06:32:53.731Z,6.20
2018-03-29T06:35:22.168Z,6.20
2018-03-29T06:37:51.012Z,5.40
2018-03-29T06:40:19.429Z,5.90
2018-03-29T06:42:47.837Z,5.17
2018-03-29T06:45:16.286Z,5.30
2018-03-29T06:47:44.695Z,4.90
2018-03-29T06:50:13.124Z,4.77
2018-03-29T06:52:41.560Z,5.03
2018-03-29T06:55:09.978Z,4.67
2018-03-29T06:57:38.406Z,5.03
2018-03-29T07:00:06.494Z,4.93
2018-03-29T07:02:34.933Z,4.50
2018-03-29T07:05:04.119Z,5.00
2018-03-29T07:07:32.545Z,4.63
2018-03-29T07:10:00.987Z,4.37
2018-03-29T07:12:30.171Z,4.53
2018-03-29T07:14:58.662Z,4.90
2018-03-29T07:17:27.231Z,4.53
2018-03-29T07:19:56.335Z,4.10
2018-03-29T07:22:26.330Z,4.67
2018-03-29T07:24:55.221Z,4.70
2018-03-29T07:27:23.744Z,4.67
2018-03-29T07:29:52.157Z,4.30
2018-03-29T07:32:20.598Z,4.03
2018-03-29T07:34:49.035Z,4.70
2018-03-29T07:37:17.471Z,4.13
2018-03-29T07:39:45.894Z,4.50
2018-03-29T07:42:14.322Z,4.73
2018-03-29T07:44:43.524Z,4.57
2018-03-29T07:47:11.987Z,4.87
2018-03-29T07:49:40.577Z,4.80
2018-03-29T07:52:09.017Z,4.60
2018-03-29T07:54:37.423Z,5.23
2018-03-29T07:57:06.607Z,5.10
2018-03-29T07:59:35.818Z,5.30
2018-03-29T08:02:03.570Z,5.40
2018-03-29T08:04:32.768Z,5.03
2018-03-29T08:07:01.975Z,5.70
2018-03-29T08:09:31.377Z,5.17
2018-03-29T08:11:59.798Z,5.70
2018-03-29T08:14:28.235Z,6.17
2018-03-29T08:16:56.650Z,6.63
2018-03-29T08:19:25.322Z,7.07
2018-03-29T08:21:53.813Z,7.53
2018-03-29T08:24:22.240Z,7.57
2018-03-29T08:26:51.442Z,7.30
2018-03-29T08:29:20.631Z,7.53
2018-03-29T08:31:49.840Z,7.23
2018-03-29T08:34:18.258Z,6.60
2018-03-29T08:36:46.697Z,7.20
2018-03-29T08:39:15.119Z,6.90
2018-03-29T08:41:43.554Z,7.03
2018-03-29T08:44:11.965Z,6.80
2018-03-29T08:46:40.402Z,7.40
2018-03-29T08:49:08.586Z,7.03
2018-03-29T08:51:37.006Z,6.97
2018-03-29T08:54:05.102Z,7.17
2018-03-29T08:56:34.276Z,6.63
2018-03-29T08:59:02.707Z,6.83
2018-03-29T09:01:31.127Z,7.13
2018-03-29T09:03:59.553Z,7.33
2018-03-29T09:06:27.995Z,7.97
2018-03-29T09:08:57.185Z,7.47
2018-03-29T09:11:25.623Z,6.93
2018-03-29T09:13:54.047Z,7.00
2018-03-29T09:16:23.785Z,7.00
2018-03-29T09:18:52.695Z,7.90
2018-03-29T09:21:21.804Z,7.00
2018-03-29T09:23:50.245Z,7.00
2018-03-29T09:26:18.696Z,6.43
2018-03-29T09:28:47.883Z,6.63
2018-03-29T09:31:16.312Z,7.30
2018-03-29T09:33:44.758Z,6.70
2018-03-29T09:36:13.945Z,6.80
2018-03-29T09:38:42.361Z,7.20
2018-03-29T09:41:10.789Z,7.17
2018-03-29T09:43:39.202Z,6.60
2018-03-29T09:46:07.622Z,7.07
2018-03-29T09:48:36.826Z,6.80
2018-03-29T09:51:05.253Z,6.33
2018-03-29T09:53:34.455Z,6.73
2018-03-29T09:56:02.894Z,6.17
2018-03-29T09:58:31.326Z,6.50
2018-03-29T10:01:05.223Z,5.87
2018-03-29T10:03:39.554Z,5.80
2018-03-29T10:06:13.465Z,6.37
2018-03-29T10:08:41.887Z,5.73
2018-03-29T10:11:10.520Z,6.20
2018-03-29T10:13:38.950Z,5.30
2018-03-29T10:16:07.373Z,5.80
2018-03-29T10:18:35.808Z,5.30
2018-03-29T10:21:04.224Z,5.40
2018-03-29T10:23:32.650Z,4.87
2018-03-29T10:26:01.069Z,5.37
2018-03-29T11:47:29.027Z,5.73
2018-03-29T11:49:58.778Z,5.63
2018-03-29T11:52:27.195Z,6.20
2018-03-29T11:54:56.395Z,6.27
2018-03-29T11:57:25.569Z,5.63
2018-03-29T11:59:54.746Z,5.73
2018-03-29T12:02:23.882Z,5.30
2018-03-29T12:04:53.078Z,4.77
2018-03-29T12:07:22.886Z,5.00
2018-03-29T12:09:53.011Z,5.37
2018-03-29T12:12:21.910Z,5.60
2018-03-29T12:14:50.328Z,5.43
2018-03-29T12:17:18.761Z,4.80
2018-03-29T12:19:47.173Z,5.23
2018-03-29T12:22:15.610Z,4.50
2018-03-29T12:24:44.806Z,4.73
2018-03-29T12:27:14.011Z,4.80
2018-03-29T12:29:43.199Z,4.90
2018-03-29T12:32:12.403Z,4.40
2018-03-29T12:34:41.593Z,4.43
2018-03-29T12:37:10.805Z,4.60
2018-03-29T12:39:39.234Z,4.43
2018-03-29T12:42:07.849Z,4.37
2018-03-29T12:44:37.042Z,3.60
2018-03-29T12:47:06.223Z,3.90
2018-03-29T12:49:34.654Z,4.20
2018-03-29T12:52:03.077Z,4.37
2018-03-29T12:54:42.628Z,4.53
2018-03-29T12:57:23.691Z,4.57
2018-03-29T12:59:52.168Z,5.10
2018-03-29T13:02:20.589Z,4.40
2018-03-29T13:04:49.015Z,4.50
2018-03-29T13:07:17.457Z,4.50
2018-03-29T13:09:45.869Z,5.03
2018-03-29T13:12:14.281Z,4.10
2018-03-29T13:14:43.479Z,4.40
2018-03-29T13:17:12.674Z,4.20
2018-03-29T13:19:41.881Z,4.67
2018-03-29T13:22:11.069Z,4.20
2018-03-29T13:24:40.268Z,4.67
2018-03-29T13:27:09.439Z,4.00
2018-03-29T13:29:37.845Z,4.30
2018-03-29T13:32:07.033Z,4.17
2018-03-29T13:34:36.261Z,4.33
2018-03-29T13:37:04.836Z,4.23
2018-03-29T13:39:33.251Z,4.60
2018-03-29T13:42:01.687Z,4.30
2018-03-29T13:44:29.890Z,3.90
2018-03-29T13:46:58.322Z,4.60
2018-03-29T13:49:27.283Z,4.27
2018-03-29T13:51:55.715Z,3.97
2018-03-29T13:54:24.935Z,4.17
2018-03-29T13:56:53.973Z,4.23
2018-03-29T13:59:24.126Z,4.43
2018-03-29T14:01:53.498Z,4.37
2018-03-29T14:04:23.220Z,4.77
2018-03-29T14:06:52.434Z,4.20
2018-03-29T14:09:20.858Z,4.90
2018-03-29T14:11:49.282Z,4.27
2018-03-29T14:14:17.717Z,4.60
2018-03-29T14:16:46.140Z,4.20
2018-03-29T14:19:14.581Z,4.10
2018-03-29T14:21:43.014Z,4.30
2018-03-29T14:24:11.452Z,4.10
2018-03-29T14:26:40.635Z,4.33
2018-03-29T14:29:09.054Z,4.37
2018-03-29T14:31:37.485Z,4.43
2018-03-29T14:34:05.898Z,4.43
2018-03-29T14:36:34.310Z,4.23
2018-03-29T14:39:02.935Z,4.70
2018-03-29T14:41:31.389Z,4.20
2018-03-29T14:43:59.982Z,4.10
2018-03-29T14:46:28.604Z,4.20
2018-03-29T14:48:57.049Z,4.20
2018-03-29T14:51:25.487Z,4.03
2018-03-29T14:53:53.919Z,4.20
2018-03-29T14:56:22.347Z,4.00
2018-03-29T14:58:50.785Z,3.90
2018-03-29T15:01:19.203Z,4.30
2018-03-29T15:03:47.621Z,4.43
2018-03-29T15:06:16.159Z,4.00
2018-03-29T15:08:44.594Z,4.03
2018-03-29T15:11:13.027Z,3.70
2018-03-29T15:13:42.304Z,3.93
2018-03-29T15:16:11.637Z,3.70
2018-03-29T15:18:40.819Z,3.80
2018-03-29T15:21:10.016Z,3.67
2018-03-29T15:23:39.218Z,4.00
2018-03-29T15:26:08.407Z,4.30
2018-03-29T15:28:37.615Z,4.20
2018-03-29T15:31:06.807Z,3.80
2018-03-29T15:33:36.007Z,3.90
2018-03-29T15:36:04.854Z,3.83
2018-03-29T15:38:33.282Z,3.40
2018-03-29T15:41:01.697Z,3.90
2018-03-29T15:43:30.114Z,3.53
2018-03-29T15:45:58.539Z,3.50
2018-03-29T15:48:26.955Z,3.90
2018-03-29T15:50:55.382Z,3.83
2018-03-29T15:53:24.383Z,3.60
2018-03-29T15:55:53.366Z,3.87
2018-03-29T15:58:21.827Z,6.60
2018-03-29T16:00:51.221Z,5.17
2018-03-29T16:03:20.413Z,4.77
2018-03-29T16:05:49.599Z,4.70
2018-03-29T16:08:18.040Z,4.40
2018-03-29T16:10:46.476Z,4.47
2018-03-29T16:13:15.686Z,4.03
2018-03-29T16:15:44.113Z,3.80
2018-03-29T16:18:12.538Z,14.53
2018-03-29T16:20:41.742Z,5.83
2018-03-29T16:23:10.159Z,3.93
2018-03-29T16:25:38.595Z,5.60
2018-03-29T16:28:07.012Z,7.10
2018-03-29T16:30:35.446Z,6.00
2018-03-29T16:33:04.626Z,6.80
2018-03-29T16:35:33.059Z,4.77
2018-03-29T16:38:01.494Z,3.33
2018-03-29T16:40:30.703Z,3.43
2018-03-29T16:42:58.890Z,3.13
2018-03-29T16:45:27.322Z,3.50
2018-03-29T16:47:55.728Z,3.50
2018-03-29T16:50:24.916Z,3.27
2018-03-29T16:52:54.125Z,3.40
2018-03-29T16:55:23.184Z,4.10
2018-03-29T16:57:52.385Z,3.70
2018-03-29T17:00:21.224Z,3.50
2018-03-29T17:02:49.643Z,3.93
2018-03-29T17:05:18.058Z,3.80
2018-03-29T17:07:46.495Z,3.60
2018-03-29T17:10:14.932Z,3.50
2018-03-29T17:12:43.353Z,3.23
2018-03-29T17:15:11.786Z,3.60
2018-03-29T17:17:40.208Z,3.60
2018-03-29T17:20:08.642Z,3.50
2018-03-29T17:22:37.053Z,3.77
2018-03-29T17:25:05.501Z,3.30
2018-03-29T17:27:33.909Z,3.37
2018-03-29T17:30:03.096Z,3.63
2018-03-29T17:32:31.535Z,3.87
2018-03-29T17:35:00.714Z,3.80
2018-03-29T17:37:29.900Z,4.17
2018-03-29T17:39:58.333Z,4.10
2018-03-29T17:42:26.762Z,4.10
2018-03-29T17:44:55.362Z,4.40
2018-03-29T17:47:24.553Z,3.83
2018-03-29T17:49:54.664Z,3.80
2018-03-29T17:52:24.278Z,3.77
2018-03-29T17:54:53.456Z,3.30
2018-03-29T17:57:21.928Z,3.20
2018-03-29T17:59:50.348Z,3.43
2018-03-29T18:02:18.556Z,3.80
2018-03-29T18:04:46.982Z,3.33
2018-03-29T18:07:16.188Z,3.10
2018-03-29T18:09:44.395Z,3.37
2018-03-29T18:12:12.811Z,3.33
2018-03-29T18:14:41.220Z,3.10
2018-03-29T18:17:09.656Z,3.60
2018-03-29T18:19:38.094Z,3.47
2018-03-29T18:22:06.520Z,4.07
2018-03-29T18:24:34.974Z,3.73
2018-03-29T18:27:03.402Z,3.70
2018-03-29T18:29:32.573Z,4.27
2018-03-29T18:32:01.006Z,3.60
2018-03-29T18:34:29.455Z,3.57
2018-03-29T18:36:58.649Z,3.57
2018-03-29T18:39:27.838Z,3.50
2018-03-29T18:41:57.059Z,3.77
2018-03-29T18:44:25.476Z,3.53
2018-03-29T18:46:54.136Z,3.40
2018-03-29T18:49:23.335Z,3.70
2018-03-29T18:51:52.697Z,3.90
2018-03-29T18:54:21.942Z,4.50
2018-03-29T18:56:51.380Z,3.87
2018-03-29T18:59:19.811Z,3.63
2018-03-29T19:01:48.226Z,4.10
2018-03-29T19:04:16.654Z,4.17
2018-03-29T19:06:45.102Z,4.53
2018-03-29T19:09:14.302Z,4.03
2018-03-29T19:11:43.499Z,3.80
2018-03-29T19:14:12.020Z,3.43
2018-03-29T19:16:40.458Z,3.90
2018-03-29T19:19:09.667Z,3.93
2018-03-29T19:21:38.874Z,3.33
2018-03-29T19:24:07.301Z,9.27
2018-03-29T19:26:35.755Z,4.73
2018-03-29T19:29:04.227Z,7.43
2018-03-29T19:31:32.644Z,8.63
2018-03-29T19:34:01.068Z,6.10
2018-03-29T19:36:29.168Z,3.67
2018-03-29T19:38:57.266Z,3.77
2018-03-29T19:41:25.678Z,3.83
2018-03-29T19:43:54.127Z,3.63
2018-03-29T19:46:23.425Z,3.23
2018-03-29T19:48:52.042Z,3.00
2018-03-29T19:51:20.474Z,2.93
2018-03-29T19:53:48.886Z,3.77
2018-03-29T19:56:18.082Z,3.03
2018-03-29T19:58:47.261Z,3.13
2018-03-29T20:01:15.689Z,3.10
2018-03-29T20:03:43.897Z,3.20
2018-03-29T20:06:12.319Z,3.70
2018-03-29T20:08:40.794Z,3.60
2018-03-29T20:11:08.995Z,3.23
2018-03-29T20:13:37.431Z,3.27
2018-03-29T20:16:06.619Z,2.87
2018-03-29T20:18:35.084Z,3.53
2018-03-29T20:21:03.521Z,2.97
2018-03-29T20:23:31.969Z,3.30
2018-03-29T20:26:01.154Z,3.07
2018-03-29T20:28:30.362Z,3.40
2018-03-29T20:30:59.547Z,3.03
2018-03-29T20:33:28.758Z,3.33
2018-03-29T20:35:57.947Z,3.90
2018-03-29T20:38:27.127Z,4.40
2018-03-29T20:40:55.555Z,3.67
2018-03-29T20:43:23.975Z,4.37
2018-03-29T20:45:52.402Z,4.60
2018-03-29T20:48:20.814Z,5.20
2018-03-29T20:50:49.245Z,4.43
2018-03-29T20:53:18.441Z,4.80
2018-03-29T20:55:47.656Z,4.40
2018-03-29T20:58:16.087Z,4.77
2018-03-29T22:22:42.519Z,5.30
2018-03-29T22:25:10.966Z,5.13
2018-03-29T22:27:39.558Z,5.83
2018-03-29T22:30:08.010Z,5.70
2018-03-29T22:32:36.439Z,6.20
2018-03-29T22:35:04.858Z,6.27
2018-03-29T22:37:34.250Z,5.93
2018-03-29T22:40:02.665Z,6.40
2018-03-29T22:42:31.102Z,6.37
2018-03-29T22:45:00.064Z,6.47
2018-03-29T22:47:28.506Z,6.73
2018-03-29T22:49:56.932Z,6.20
2018-03-29T22:52:25.353Z,6.57
2018-03-29T22:54:54.255Z,6.27
2018-03-29T22:57:23.555Z,6.57
2018-03-29T22:59:52.473Z,5.90
2018-03-29T23:02:20.886Z,6.10
2018-03-29T23:04:50.077Z,6.20
2018-03-29T23:07:19.259Z,5.90
2018-03-29T23:09:48.471Z,6.10
2018-03-29T23:12:17.661Z,6.20
2018-03-29T23:14:46.842Z,5.97
2018-03-29T23:17:15.270Z,6.63
2018-03-29T23:19:43.691Z,6.00
2018-03-29T23:22:12.113Z,5.77
2018-03-29T23:24:40.533Z,6.07
2018-03-29T23:27:08.971Z,5.83
2018-03-29T23:29:37.390Z,6.20
2018-03-29T23:32:05.811Z,5.70
2018-03-29T23:34:35.009Z,5.83
2018-03-29T23:37:04.195Z,6.00
2018-03-29T23:39:33.391Z,6.00
2018-03-29T23:42:02.575Z,6.07
2018-03-29T23:44:30.998Z,5.70
2018-03-29T23:46:59.412Z,5.87
2018-03-29T23:49:27.831Z,6.20
2018-03-29T23:51:57.037Z,5.90
2018-03-29T23:54:25.451Z,6.03
2018-03-29T23:56:54.531Z,5.87
2018-03-29T23:59:22.961Z,6.27
